Latest Weather Observations for West Wyalong

IDN60801

Issued at 12:32 pm EDT Saturday 25 March 2017 (issued every 30 minutes, with the page automatically refreshed every 10 minutes)

About weather observations | Map of weather stations | Latest weather observations for NSW | Other Formats
Station Details ID: 050017 Name: WEST WYALONG AIRPORT AWS Lat: -33.94 Lon: 147.20 Height: 257.0 m
Data from the previous 72 hours. | See also: Recent months at West Wyalong
Date/Time
EDT
Temp
°C
App
Temp
°C
Dew
Point
°C
Rel
Hum
%
Delta-T
°C
Wind Press
QNH
hPa
Press
MSL
hPa
Rain since
9am
mm
Dir  Spd
km/h
Gust
km/h
Spd
kts
Gust
kts
25/12:30pm 27.1 26.3 17.0 54 6.4 NNW 17 26 9 14 1014.6 1013.6 0.0
25/12:00pm 26.3 24.7 16.5 54 6.1 N 20 30 11 16 1014.9 1013.9 0.0
25/11:30am 25.9 24.7 16.2 55 6.0 N 17 24 9 13 1015.4 1014.4 0.0
25/11:00am 25.2 24.0 16.1 57 5.6 N 17 30 9 16 1015.4 1014.4 0.0
25/10:30am 24.0 22.0 15.5 59 5.2 NNE 20 26 11 14 1015.5 1014.5 0.0
25/10:00am 22.9 21.0 15.2 62 4.6 NNE 19 24 10 13 1015.5 1014.5 0.0
25/09:30am 22.1 21.4 15.5 66 4.0 ENE 13 20 7 11 1015.5 1014.5 0.0
25/09:00am 20.2 19.4 15.0 72 3.1 NE 13 20 7 11 1015.3 1014.3 0.0
25/08:30am 19.1 18.3 15.0 77 2.4 NE 13 19 7 10 1015.1 1014.1 0.0
25/08:00am 18.1 17.6 15.0 82 1.8 NE 11 13 6 7 1014.9 1013.9 0.0
25/07:30am 17.8 17.7 14.9 83 1.7 ENE 9 13 5 7 1014.9 1013.9 0.0
25/07:00am 17.7 17.2 14.8 83 1.7 ENE 11 13 6 7 1014.9 1013.9 0.0
25/06:30am 18.3 18.1 14.8 80 2.1 ENE 9 13 5 7 1015.0 1014.0 0.0
25/06:00am 18.4 18.2 14.7 79 2.2 ENE 9 13 5 7 1014.8 1013.8 0.0
25/05:30am 18.7 18.2 14.8 78 2.3 ENE 11 13 6 7 1014.8 1013.8 0.0
25/05:00am 18.5 18.4 15.0 80 2.1 E 9 11 5 6 1014.5 1013.4 0.0
25/04:30am 18.4 18.7 14.9 80 2.1 ENE 7 11 4 6 1014.7 1013.7 0.0
25/04:00am 18.9 18.8 15.0 78 2.3 ENE 9 11 5 6 1015.0 1014.0 0.0
25/03:30am 19.3 19.3 15.2 77 2.4 ENE 9 13 5 7 1015.1 1014.1 0.0
25/03:00am 20.0 19.2 15.0 73 3.0 ENE 13 15 7 8 1015.2 1014.2 0.0
25/02:30am 20.3 19.5 15.1 72 3.1 ENE 13 19 7 10 1015.6 1014.6 0.0
25/02:00am 20.3 19.5 15.1 72 3.1 ENE 13 20 7 11 1015.7 1014.7 0.0
25/01:30am 20.3 19.6 15.5 74 2.9 ENE 13 17 7 9 1015.9 1014.9 0.0
25/01:00am 20.8 20.5 16.4 76 2.7 NE 13 19 7 10 1016.0 1015.0 0.0
25/12:30am 20.5 20.8 16.9 80 2.2 ENE 11 15 6 8 1016.1 1015.1 0.0
25/12:00am 21.1 21.1 17.1 78 2.5 NE 13 17 7 9 1016.1 1015.1 0.0
 
Date/Time
EDT
Temp
°C
App
Temp
°C
Dew
Point
°C
Rel
Hum
%
Delta-T
°C
Wind Press
QNH
hPa
Press
MSL
hPa
Rain since
9am
mm
Dir  Spd
km/h
Gust
km/h
Spd
kts
Gust
kts
24/11:30pm 21.6 20.8 17.2 76 2.7 NNE 17 24 9 13 1016.1 1015.1 0.0
24/11:00pm 22.2 21.9 17.3 74 3.0 NE 15 20 8 11 1016.4 1015.4 0.0
24/10:30pm 22.8 22.2 17.5 72 3.3 NE 17 24 9 13 1016.0 1015.0 0.0
24/10:00pm 23.1 23.0 17.8 72 3.3 NE 15 20 8 11 1015.8 1014.8 0.0
24/09:30pm 23.5 23.9 18.2 72 3.4 NE 13 19 7 10 1015.9 1014.9 0.0
24/09:00pm 23.5 24.1 17.7 70 3.6 NNE 11 15 6 8 1015.4 1014.4 0.0
24/08:30pm 24.3 24.6 17.8 67 4.1 N 13 15 7 8 1015.4 1014.4 0.0
24/08:00pm 24.6 24.9 17.8 66 4.3 N 13 15 7 8 1015.0 1014.0 0.0
24/07:30pm 25.1 24.9 17.6 63 4.7 NNE 15 20 8 11 1014.7 1013.7 0.0
24/07:00pm 26.1 25.6 16.9 57 5.8 NE 15 24 8 13 1014.7 1013.7 0.0
24/06:30pm 26.8 25.3 16.4 53 6.5 NE 19 26 10 14 1014.6 1013.6 0.0
24/06:00pm 27.2 26.2 16.5 52 6.7 NE 17 26 9 14 1014.5 1013.4 0.0
24/05:30pm 28.1 27.0 16.4 49 7.3 NE 17 28 9 15 1014.4 1013.3 0.0
24/05:00pm 28.1 26.5 16.4 49 7.3 ENE 20 30 11 16 1014.3 1013.2 0.0
24/04:30pm 27.5 25.7 16.1 49 7.1 NE 20 30 11 16 1014.5 1013.4 0.0
24/04:00pm 28.9 26.9 16.5 47 7.8 NE 22 32 12 17 1014.7 1013.7 0.0
24/03:30pm 27.7 25.5 16.0 49 7.3 NE 22 30 12 16 1014.9 1013.9 0.0
24/03:00pm 27.9 26.1 15.9 48 7.5 NE 20 35 11 19 1015.1 1014.1 0.0
24/02:30pm 27.8 25.3 16.1 49 7.3 ENE 24 39 13 21 1015.6 1014.6 0.0
24/02:00pm 27.2 25.1 16.2 51 6.8 NE 22 35 12 19 1016.2 1015.2 0.0
24/01:30pm 27.6 25.4 15.9 49 7.3 ENE 22 33 12 18 1016.8 1015.8 0.0
24/01:00pm 26.9 24.8 15.3 49 7.1 NE 20 30 11 16 1017.1 1016.0 0.0
24/12:30pm 25.8 22.8 14.9 51 6.6 NE 24 33 13 18 1017.6 1016.5 0.0
24/12:00pm 26.1 23.5 14.9 50 6.8 ENE 22 32 12 17 1017.8 1016.7 0.0
24/11:30am 25.5 22.9 14.9 52 6.4 ENE 22 30 12 16 1018.2 1017.2 0.0
24/11:00am 24.1 20.4 13.9 53 6.0 ENE 26 35 14 19 1018.1 1017.1 0.0
24/10:30am 23.4 20.9 14.1 56 5.5 E 20 32 11 17 1018.0 1017.0 0.0
24/10:00am 21.9 18.9 13.8 60 4.7 E 22 32 12 17 1018.3 1017.3 0.0
24/09:30am 22.0 19.7 14.1 61 4.7 E 19 32 10 17 1018.3 1017.3 0.0
24/09:00am 20.3 17.0 14.0 67 3.7 E 24 35 13 19 1018.1 1017.1 0.0
24/08:30am 18.9 16.4 14.0 73 2.8 E 20 30 11 16 1017.8 1016.7 0.0
24/08:00am 18.1 16.1 14.0 77 2.4 E 17 22 9 12 1017.6 1016.5 0.0
24/07:30am 17.2 15.2 13.9 81 1.9 E 17 20 9 11 1017.4 1016.3 0.0
24/07:00am 17.4 15.4 13.9 80 2.0 E 17 22 9 12 1017.2 1016.1 0.0
24/06:30am 17.5 15.5 14.0 80 2.0 E 17 26 9 14 1016.8 1015.8 0.0
24/06:00am 17.6 15.2 13.9 79 2.1 ESE 19 28 10 15 1016.7 1015.7 0.0
24/05:30am 18.1 15.6 14.0 77 2.4 ESE 20 28 11 15 1016.7 1015.7 0.0
24/05:00am 18.3 15.8 14.0 76 2.5 ESE 20 32 11 17 1016.7 1015.7 0.0
24/04:30am 18.6 15.8 14.3 76 2.5 ESE 22 32 12 17 1016.7 1015.7 0.0
24/04:00am 18.5 16.0 14.2 76 2.5 ESE 20 28 11 15 1016.5 1015.5 0.0
24/03:30am 18.4 16.2 14.3 77 2.4 ESE 19 26 10 14 1016.5 1015.5 0.0
24/03:00am 17.7 15.8 14.2 80 2.0 ESE 17 24 9 13 1016.6 1015.6 0.0
24/02:30am 17.8 15.9 14.1 79 2.1 ESE 17 20 9 11 1016.8 1015.8 0.0
24/02:00am 18.0 16.5 14.3 79 2.1 ESE 15 20 8 11 1016.5 1015.5 0.0
24/01:30am 18.3 16.5 14.4 78 2.3 E 17 22 9 12 1016.6 1015.6 0.0
24/01:00am 18.5 16.3 14.4 77 2.4 ESE 19 26 10 14 1016.9 1015.9 0.0
24/12:30am 18.6 16.7 14.3 76 2.5 ESE 17 22 9 12 1016.9 1015.9 0.0
24/12:00am 18.9 16.8 14.8 77 2.4 E 19 24 10 13 1017.1 1016.0 0.0
 
Date/Time
EDT
Temp
°C
App
Temp
°C
Dew
Point
°C
Rel
Hum
%
Delta-T
°C
Wind Press
QNH
hPa
Press
MSL
hPa
Rain since
9am
mm
Dir  Spd
km/h
Gust
km/h
Spd
kts
Gust
kts
23/11:30pm 19.0 17.5 15.3 79 2.2 ESE 17 24 9 13 1017.1 1016.0 0.0
23/11:00pm 19.4 17.7 15.7 79 2.2 ESE 19 28 10 15 1017.1 1016.0 0.0
23/10:30pm 19.6 18.9 16.3 81 2.0 ESE 15 20 8 11 1017.3 1016.2 0.0
23/10:00pm 19.8 18.7 16.3 80 2.1 ESE 17 20 9 11 1017.1 1016.0 0.0
23/09:30pm 20.0 19.2 16.2 79 2.3 ESE 15 24 8 13 1016.8 1015.8 0.0
23/09:00pm 20.6 18.9 16.2 76 2.7 ESE 20 26 11 14 1016.4 1015.4 0.0
23/08:30pm 20.7 18.6 16.3 76 2.7 SE 22 32 12 17 1016.2 1015.2 0.0
23/08:00pm 20.5 19.1 16.5 78 2.4 SE 19 28 10 15 1016.0 1015.0 0.0
23/07:30pm 20.9 19.4 16.7 77 2.6 ESE 20 28 11 15 1015.4 1014.4 0.0
23/07:00pm 22.0 20.2 16.9 73 3.1 ESE 22 32 12 17 1014.9 1013.9 0.0
23/06:30pm 22.8 20.4 17.3 71 3.4 ESE 26 35 14 19 1014.8 1013.8 0.0
23/06:00pm 24.0 21.4 17.7 68 4.0 ESE 28 35 15 19 1014.4 1013.3 0.0
23/05:30pm 25.4 23.8 18.3 65 4.5 ESE 24 35 13 19 1014.0 1012.9 0.0
23/05:00pm 25.9 25.3 18.8 65 4.6 ESE 20 28 11 15 1014.2 1013.1 0.0
23/04:30pm 25.9 25.2 18.6 64 4.7 ESE 20 28 11 15 1014.8 1013.8 0.0
23/04:00pm 25.1 25.0 18.8 68 4.1 ESE 17 22 9 12 1015.2 1014.2 0.0
23/03:30pm 24.1 23.6 19.0 73 3.3 ESE 20 26 11 14 1015.2 1014.2 0.0
23/03:00pm 23.9 23.6 19.2 75 3.0 ESE 19 24 10 13 1015.3 1014.3 0.0
23/02:30pm 23.9 23.9 19.0 74 3.1 ESE 17 24 9 13 1015.5 1014.5 0.0
23/02:00pm 25.0 24.6 18.9 69 3.9 ENE 19 30 10 16 1015.6 1014.6 0.0
23/01:30pm 26.4 26.0 19.3 65 4.6 ENE 20 28 11 15 1015.9 1014.9 0.0
23/01:00pm 24.8 24.0 18.5 68 4.0 ENE 20 28 11 15 1016.4 1015.4 0.0
23/12:30pm 24.7 24.2 18.6 69 3.9 ENE 19 28 10 15 1016.8 1015.8 0.0
23/12:00pm 23.2 22.3 18.3 74 3.1 ENE 20 28 11 15 1017.2 1016.1 0.0
23/11:30am 22.5 20.5 17.4 73 3.2 ENE 24 32 13 17 1017.2 1016.1 0.0
23/11:00am 22.6 21.4 17.5 73 3.2 E 20 30 11 16 1017.2 1016.1 0.0
23/10:30am 21.2 19.3 16.6 75 2.8 E 22 28 12 15 1017.2 1016.1 0.0
23/10:00am 21.6 20.1 16.8 74 3.0 E 20 28 11 15 1016.9 1015.9 0.0
23/09:30am 20.3 19.7 16.7 80 2.2 E 15 20 8 11 1017.2 1016.1 0.0
23/09:00am 19.6 19.1 17.0 85 1.6 E 15 20 8 11 1017.1 1016.0 0.2
23/08:30am 19.2 19.1 17.0 87 1.3 E 13 17 7 9 1016.6 1015.6 0.2
23/08:00am 19.0 18.5 16.8 87 1.3 E 15 20 8 11 1016.1 1015.1 0.2
23/07:30am 19.1 19.0 16.9 87 1.3 E 13 15 7 8 1016.0 1015.0 0.2
23/07:00am 19.3 19.7 17.3 88 1.2 E 11 17 6 9 1016.0 1015.0 0.2
23/06:30am 19.4 19.3 17.9 91 0.9 E 15 20 8 11 1015.5 1014.5 0.2
23/06:00am 19.4 19.7 17.9 91 0.9 E 13 19 7 10 1015.5 1014.5 0.2
23/05:30am 19.2 19.9 18.0 93 0.7 ESE 11 19 6 10 1015.3 1014.3 0.0
23/05:00am 19.1 19.9 18.1 94 0.6 ESE 11 13 6 7 1015.1 1014.1 0.0
23/04:30am 18.8 20.8 17.8 94 0.6 ESE 4 7 2 4 1015.0 1014.0 0.0
23/04:00am 18.8 19.8 17.8 94 0.6 ESE 9 11 5 6 1014.7 1013.7 0.0
23/03:30am 18.8 20.1 17.6 93 0.7 SE 7 11 4 6 1014.5 1013.4 0.0
23/03:00am 19.2 20.3 17.9 92 0.8 ESE 9 11 5 6 1014.6 1013.6 0.0
23/02:30am 19.5 21.2 18.0 91 0.9 E 6 9 3 5 1014.7 1013.7 0.0
23/02:00am 19.6 20.8 18.3 92 0.8 NE 9 13 5 7 1014.8 1013.8 0.0
23/01:30am 19.7 21.6 18.5 93 0.8 E 6 7 3 4 1014.8 1013.8 0.0
23/01:00am 19.8 21.5 18.6 93 0.8 SE 7 9 4 5 1014.7 1013.7 0.0
23/12:30am 19.7 21.8 18.2 91 0.9 SE 4 9 2 5 1014.9 1013.9 0.0
23/12:00am 20.1 21.5 18.6 91 0.9 SE 9 11 5 6 1014.8 1013.8 0.0
 
Date/Time
EDT
Temp
°C
App
Temp
°C
Dew
Point
°C
Rel
Hum
%
Delta-T
°C
Wind Press
QNH
hPa
Press
MSL
hPa
Rain since
9am
mm
Dir  Spd
km/h
Gust
km/h
Spd
kts
Gust
kts
22/11:30pm 20.2 21.6 18.7 91 0.9 SSE 9 11 5 6 1014.6 1013.6 0.0
22/11:00pm 20.5 22.8 18.6 89 1.2 E 4 6 2 3 1014.5 1013.4 0.0
22/10:30pm 21.0 24.1 18.6 86 1.5 CALM 0 0 0 0 1014.4 1013.3 0.0
22/10:00pm 21.5 22.9 18.7 84 1.8 NE 9 13 5 7 1014.4 1013.3 0.0
22/09:30pm 22.1 23.9 18.7 81 2.2 NNE 7 11 4 6 1014.1 1013.0 0.0
22/09:00pm 22.5 23.1 18.5 78 2.5 NE 13 19 7 10 1013.3 1012.2 0.0
22/08:30pm 23.5 23.5 18.2 72 3.4 NNE 15 20 8 11 1013.1 1012.0 0.0
22/08:00pm 24.8 25.1 18.0 66 4.3 NE 13 20 7 11 1012.8 1011.8 0.0
22/07:30pm 25.2 26.0 18.2 65 4.5 ENE 11 15 6 8 1013.1 1012.0 0.0
22/07:00pm 25.4 25.9 18.3 65 4.5 ENE 13 17 7 9 1012.8 1011.8 0.0
22/06:30pm 26.4 26.9 18.3 61 5.2 ENE 13 17 7 9 1012.5 1011.5 0.0
22/06:00pm 27.0 26.0 17.5 56 6.0 ESE 19 24 10 13 1011.9 1010.9 0.0
22/05:30pm 27.8 27.0 18.5 57 6.0 E 20 30 11 16 1011.4 1010.4 0.0
22/05:00pm 28.2 27.5 18.6 56 6.2 ESE 20 30 11 16 1011.4 1010.4 0.0
22/04:30pm 28.5 28.0 19.2 57 6.1 ESE 20 28 11 15 1011.4 1010.4 0.0
22/04:00pm 28.2 28.0 18.6 56 6.2 ESE 17 26 9 14 1011.9 1010.9 0.0
22/03:30pm 27.8 27.2 18.5 57 6.0 SE 19 26 10 14 1012.2 1011.2 0.0
22/03:00pm 27.8 27.2 18.5 57 6.0 SE 19 26 10 14 1012.7 1011.7 0.0
22/02:30pm 26.7 26.0 18.3 60 5.4 SE 19 28 10 15 1012.8 1011.8 0.0
22/02:00pm 25.3 24.2 17.7 62 4.8 SE 20 28 11 15 1013.6 1012.5 0.0
22/01:30pm 24.3 23.2 17.8 67 4.1 SSE 20 30 11 16 1013.8 1012.7 0.0
22/01:00pm 24.0 22.9 18.6 72 3.5 S 22 32 12 17 1014.3 1013.2 0.0

Other Formats:

Comma delimited format used in spreadsheet applications
http://www.bom.gov.au/fwo/IDN60801/IDN60801.95709.axf

JavaScript Object Notation format (JSON) in row-major order
http://www.bom.gov.au/fwo/IDN60801/IDN60801.95709.json